Portada
METAR-TAF:

METAR-TAF

Aeroports :

Beverly, Massachusetts, Estats Units d'Amèrica

latitud: 42-35-01N, longitud: 070-54-59W, altitud: 33 m

Observació

L'informe es va fer fa 48 minuts, a les 02:53 UTC
Vent 13 kt del Sud/Sud-Oest amb ràfegues de 21 kt
Temperatura 21°C
Humitat 53%
Pressió 1013 hPa
Visibilitat: 16.1 km
Cel clar

METAR: KBVY 160253Z AUTO 21013G21KT 10SM CLR 21/11 A2990 RMK AO2 SLP118 T02110106 50000 $

Hora: 23:41 (03:41 UTC)


TAF: manca

Observacions i pronòstics meteorològics de més de 4000 aeroports (METAR i TAF).

Les estacions disponibles són els punts grocs i vermells al mapa.

Posi el ratolí al punt desitjat per veure el nom de l'estació.

Feu clic per veure les observacions i els pronòstics meteorològics.

Per canviar el mapa: feu clic els botons verds amb una creu de color negre per apropar; al botó verd amb un guió per allunyar la imatge; o en les fletxes verdes per a mapes adjacents.


METAR-TAF: